Current Weather Conditions: station ENQR

sailwx.info

See reports from other nearby stations

no recent reports received from weather station ID ENQR

Tides Pressure Air temp Water temp Dewpoint Dewpoint depression Visibility Wind speed Wind direction Waves Ship positions
date/time (UTC)wind fromknots sea level pressurealtimeterstation pressurevisibilityair tempwater tempwave heightnotes
2017-Feb-25 14:50 280 33 5.4 8.0
2017-Feb-25 14:20 280 28 5.4 9.0
2017-Feb-25 13:50 270 27 gusting 38 5.4 8.0
2017-Feb-25 13:20 220 32 1.8 8.0
2017-Feb-25 12:50 190 33 0.9 8.0
2017-Feb-25 12:20 170 36 1.1 8.0
2017-Feb-25 11:50 170 38 1.7 8.0
2017-Feb-25 11:20 160 41 2.0 7.0
2017-Feb-25 10:50 160 41 1.6 7.0
2017-Feb-25 10:20 160 45 1.9 7.0
2017-Feb-25 09:50 160 48 gusting 60 2.1 6.0
2017-Feb-25 09:20 150 51 gusting 61 1.3 6.0
2017-Feb-25 08:50 160 54 gusting 66 2.2 6.0
2017-Feb-25 08:20 150 52 gusting 65 1.7 5.0
2017-Feb-25 07:50 150 54 gusting 67 1.6 5.0
2017-Feb-25 07:20 150 54 gusting 65 1.5 5.0
2017-Feb-25 06:50 150 55 gusting 69 2.1 4.0
2017-Feb-25 06:20 140 53 gusting 65 1.4 4.0
2017-Feb-25 05:50 150 49 gusting 65 1.4 4.0
2017-Feb-25 05:20 140 49 2.4 3.0
2017-Feb-25 04:50 150 48 gusting 59 2.1 3.0
2017-Feb-25 04:20 140 47 gusting 56 2.7 3.0
2017-Feb-25 03:50 140 46 5.4 4.0
2017-Feb-25 03:20 150 41 2.7 3.0
2017-Feb-25 02:50 150 38 gusting 48 3.8 4.0
2017-Feb-25 02:20 150 39 5.4 5.0
2017-Feb-25 01:50 150 34 5.4 4.0
2017-Feb-25 01:20 150 35 5.4 4.0
2017-Feb-25 00:50 150 34 5.4 4.0
2017-Feb-25 00:20 160 29 5.4 4.0
2017-Feb-24 23:50 150 29 5.4 4.0
2017-Feb-24 23:20 140 29 5.4 4.0
2017-Feb-24 22:50 140 22 5.4 4.0
2017-Feb-24 22:20 140 24 5.4 3.0
2017-Feb-24 21:50 150 20 5.4 3.0
2017-Feb-24 21:20 140 18 5.4 3.0
2017-Feb-24 20:50 140 15 5.4 3.0
2017-Feb-24 20:20 130 14 5.4 3.0
2017-Feb-24 19:50 130 12 5.4 3.0
2017-Feb-24 19:20 110 11 5.4 3.0
2017-Feb-24 18:50 100 6 5.4 3.0
2017-Feb-24 18:20 080 2 5.4 3.0
2017-Feb-24 17:50 080 6 gusting 15 5.4 3.0
2017-Feb-24 17:20 5.4 3.0
2017-Feb-24 16:50 050 6 5.4 3.0
2017-Feb-24 14:20 040 14 5.4 3.0
2017-Feb-24 13:50 050 15 5.4 3.0
2017-Feb-24 13:20 340 14 5.4 3.0
2017-Feb-24 12:50 360 17 5.4 3.0
2017-Feb-24 12:20 040 14 5.4 3.0
2017-Feb-24 11:50 010 8 5.4 3.0
2017-Feb-24 11:20 030 9 5.4 2.0
2017-Feb-24 10:50 050 17 5.4 3.0
2017-Feb-24 10:20 350 14 5.4 2.0
2017-Feb-24 09:50 010 20 3.8 1.0
2017-Feb-24 09:20 030 21 5.4 2.0
2017-Feb-24 08:50 010 20 5.4 3.0
2017-Feb-24 08:20 050 15 5.4 2.0
2017-Feb-24 07:50 030 13 5.4 2.0
2017-Feb-24 07:20 050 19 2.3 1.0
2017-Feb-24 06:50 030 25 5.4 2.0
2017-Feb-24 06:20 360 22 5.4 3.0
2017-Feb-24 05:50 010 20 5.4 3.0
2017-Feb-24 05:20 360 21 5.4 2.0
2017-Feb-24 04:50 360 29 1.5-0.0
2017-Feb-24 04:20 020 24 5.4 2.0
2017-Feb-24 03:50 020 22 3.2 1.0
2017-Feb-24 03:20 040 24 4.9 2.0
2017-Feb-24 02:50 050 24 5.4 2.0
2017-Feb-24 02:20 020 27 5.4 1.0
2017-Feb-24 01:50 010 27 gusting 41 3.8-1.0
2017-Feb-24 01:20 020 39 gusting 54 2.1 1.0
2017-Feb-24 00:50 010 20 5.4 2.0
2017-Feb-24 00:20 320 20 5.4 2.0
2017-Feb-23 23:50 360 33 2.2-0.0
2017-Feb-23 23:20 030 27 0.7-0.0
2017-Feb-23 22:50 020 24 5.4 2.0
2017-Feb-23 22:20 010 22 gusting 33 5.4 1.0
2017-Feb-23 21:50 030 26 4.3 1.0
2017-Feb-23 21:20 030 24 5.4 2.0
2017-Feb-23 20:50 020 21 5.4 1.0
2017-Feb-23 20:20 030 15 5.4-1.0
2017-Feb-23 19:50 360 33 0.6-0.0
2017-Feb-23 19:20 030 20 5.4 2.0
2017-Feb-23 18:50 020 20 5.4 2.0
2017-Feb-23 18:20 030 27 5.4 2.0
2017-Feb-23 17:50 020 24 5.4 3.0
2017-Feb-23 17:20 030 25 5.4 3.0
2017-Feb-23 16:50 030 25 5.4 3.0
2017-Feb-23 16:20 020 28 5.4 3.0